Kezdőlap
METAR-TAF:

METAR-TAF

Repülőterek :

Fairford, Anglia

földrajzi szélesség: 51-41N, földrajzi hosszúság: 001-47W, magasság: 87 m

Jelenlegi meteorológiai megfigyelések

A jelentés 21 perccel ezelõtt készült, 12:51 UTC
Délnyugati szél 10 kt
Hőmérséklet 8°C
Páratartalom 81%
Légköri nyomás 995 hPa
Látótávolság 10 km, vagy több
Szórványos felhőzet 3800 lábon

METAR: EGVA 151251Z AUTO 23010KT 9999 SCT038 08/05 A2939 RMK AO2 SLP958 $

Idő: 13:12 (13:12 UTC)


TAF: hiányzik

Meteorológiai megfigyelések és előrejelzések több, mint 4000 repülőtéren (METAR és TAF jelentéseket).

A térképen piros és sárga pontok jelzik az elérhető meteorológiai állomásokat.

Mozgassa az egeret a pont fölött, hogy megjelenjen az állomás neve.

Azután kattintson az időjárási megfigyelések és előrejelzések megtekintéséhez.

A térkép megváltoztatása: kattintson a fekete keresztel jelölt zöld gombra ráközelítéshez, a vonallal jelölt zöld gombra távolításhoz, vagy a zöld nyilakra a szomszédos térképek eléréséhez.


METAR-TAF: